createdAt,value
2023-05-11T00:02:00.669Z,75.58
2023-05-11T00:05:59.106Z,74.98
2023-05-11T00:10:00.458Z,73.83
2023-05-11T00:13:58.981Z,73.84
2023-05-11T00:18:00.657Z,73.13
2023-05-11T00:21:58.964Z,71.38
2023-05-11T00:26:00.716Z,70.79
2023-05-11T00:29:58.875Z,70.23
2023-05-11T00:34:00.488Z,69.78
2023-05-11T00:37:59.085Z,70.38
2023-05-11T00:42:00.041Z,69.65
2023-05-11T00:45:58.020Z,69.51
2023-05-11T00:49:59.246Z,69.92
2023-05-11T00:53:56.876Z,69.53
2023-05-11T00:57:58.700Z,68.95
2023-05-11T01:01:57.040Z,68.30
2023-05-11T01:05:58.507Z,68.10
2023-05-11T01:09:56.280Z,68.64
2023-05-11T01:13:56.638Z,69.10
2023-05-11T01:17:54.200Z,69.89
2023-05-11T01:21:54.563Z,71.03
2023-05-11T01:25:52.437Z,70.93
2023-05-11T01:29:52.792Z,70.85
2023-05-11T01:33:50.384Z,71.25
2023-05-11T01:37:50.847Z,70.40
2023-05-11T01:41:48.463Z,70.15
2023-05-11T01:45:50.626Z,68.70
2023-05-11T01:49:48.528Z,69.45
2023-05-11T01:53:48.757Z,68.43
2023-05-11T01:57:46.225Z,68.16
2023-05-11T02:01:45.830Z,67.55
2023-05-11T02:05:44.505Z,67.42
2023-05-11T02:09:44.768Z,67.16
2023-05-11T02:13:42.267Z,66.88
2023-05-11T02:17:42.026Z,66.25
2023-05-11T02:21:39.318Z,65.99
2023-05-11T02:25:39.776Z,66.10
2023-05-11T02:29:37.461Z,66.56
2023-05-11T02:33:36.909Z,66.92
2023-05-11T02:37:34.605Z,67.01
2023-05-11T02:41:34.851Z,67.07
2023-05-11T02:45:32.803Z,67.49
2023-05-11T02:49:31.640Z,67.99
2023-05-11T02:53:29.933Z,68.34
2023-05-11T02:57:30.862Z,68.44
2023-05-11T03:01:31.426Z,68.46
2023-05-11T03:05:31.746Z,68.84
2023-05-11T03:09:29.594Z,69.18
2023-05-11T03:13:29.792Z,68.81
2023-05-11T03:17:28.755Z,68.17
2023-05-11T03:21:29.832Z,67.75
2023-05-11T03:25:27.575Z,67.27
2023-05-11T03:29:28.007Z,66.93
2023-05-11T03:33:25.836Z,66.85
2023-05-11T03:37:25.888Z,67.52
2023-05-11T03:41:23.381Z,66.39
2023-05-11T03:45:24.889Z,64.96
2023-05-11T03:49:22.566Z,64.32
2023-05-11T03:53:21.954Z,62.36
2023-05-11T03:57:19.735Z,60.68
2023-05-11T04:01:16.813Z,59.56
2023-05-11T04:05:16.678Z,57.52
2023-05-11T04:09:15.682Z,54.68
2023-05-11T04:13:15.722Z,54.18
2023-05-11T04:17:13.920Z,52.37
2023-05-11T04:21:13.814Z,51.62
2023-05-11T04:25:12.713Z,50.56
2023-05-11T04:29:12.976Z,50.25
2023-05-11T04:33:10.849Z,49.60
2023-05-11T04:37:09.753Z,48.81
2023-05-11T04:41:11.147Z,47.96
2023-05-11T04:45:10.648Z,47.15
2023-05-11T04:49:11.127Z,46.47
2023-05-11T04:53:10.608Z,46.26
2023-05-11T04:57:10.961Z,44.93
2023-05-11T05:01:08.542Z,44.02
2023-05-11T05:05:08.224Z,43.31
2023-05-11T05:09:05.812Z,43.06
2023-05-11T05:13:06.079Z,41.94
2023-05-11T05:17:03.631Z,40.27
2023-05-11T05:21:03.862Z,39.45
2023-05-11T05:25:01.809Z,38.96
2023-05-11T05:29:02.098Z,38.45
2023-05-11T05:33:01.044Z,37.91
2023-05-11T05:37:00.439Z,35.19
2023-05-11T05:40:58.730Z,34.48
2023-05-11T05:44:53.591Z,33.60
2023-05-11T05:48:58.268Z,33.08
2023-05-11T05:52:58.099Z,31.89
2023-05-11T05:56:56.963Z,31.58
2023-05-11T06:00:57.368Z,31.69
2023-05-11T06:05:02.987Z,31.39
2023-05-11T06:09:04.088Z,30.86
2023-05-11T06:13:01.743Z,30.56
2023-05-11T06:16:59.344Z,29.96
2023-05-11T06:20:47.222Z,29.01
2023-05-11T06:24:32.970Z,29.90
2023-05-11T06:28:18.214Z,28.91
2023-05-11T06:32:03.481Z,28.76
2023-05-11T06:35:49.295Z,28.50
2023-05-11T06:39:35.036Z,28.81
2023-05-11T06:43:20.221Z,29.04
2023-05-11T06:47:12.877Z,28.06
2023-05-11T06:51:10.901Z,28.11
2023-05-11T06:55:11.253Z,28.17
2023-05-11T06:59:08.749Z,27.39
2023-05-11T07:03:08.275Z,26.54
2023-05-11T07:07:18.851Z,25.63
2023-05-11T07:11:17.708Z,25.56
2023-05-11T07:15:19.209Z,25.07
2023-05-11T07:19:17.805Z,24.52
2023-05-11T07:23:17.009Z,25.09
2023-05-11T07:27:15.720Z,25.28
2023-05-11T07:31:15.301Z,24.56
2023-05-11T07:35:13.764Z,23.86
2023-05-11T07:39:19.245Z,22.76
2023-05-11T07:43:17.728Z,22.49
2023-05-11T07:47:19.066Z,21.58
2023-05-11T07:51:17.797Z,21.24
2023-05-11T07:55:19.282Z,21.37
2023-05-11T07:59:17.121Z,21.19
2023-05-11T08:03:18.769Z,20.45
2023-05-11T08:07:13.830Z,20.39
2023-05-11T08:11:15.095Z,20.18
2023-05-11T08:15:14.198Z,20.08
2023-05-11T08:19:13.457Z,20.09
2023-05-11T08:23:10.962Z,19.16
2023-05-11T08:27:10.598Z,18.24
2023-05-11T08:31:08.802Z,17.55
2023-05-11T08:35:13.773Z,17.15
2023-05-11T08:39:12.026Z,17.61
2023-05-11T08:43:13.909Z,17.70
2023-05-11T08:47:22.907Z,17.71
2023-05-11T08:51:25.531Z,17.95
2023-05-11T08:55:21.174Z,18.44
2023-05-11T08:59:20.549Z,17.96
2023-05-11T09:03:16.029Z,18.15
2023-05-11T09:07:14.982Z,18.63
2023-05-11T09:11:10.427Z,18.25
2023-05-11T09:15:07.584Z,17.72
2023-05-11T09:19:03.214Z,17.29
2023-05-11T09:23:03.096Z,17.15
2023-05-11T09:26:58.672Z,17.71
2023-05-11T09:30:58.062Z,19.22
2023-05-11T09:34:54.391Z,18.67
2023-05-11T09:38:57.288Z,18.37
2023-05-11T09:42:53.329Z,18.07
2023-05-11T09:46:52.837Z,17.75
2023-05-11T09:50:49.171Z,17.83
2023-05-11T09:54:48.570Z,17.47
2023-05-11T09:58:44.055Z,17.43
2023-05-11T10:02:43.112Z,17.71
2023-05-11T10:06:38.960Z,17.98
2023-05-11T10:10:38.381Z,17.27
2023-05-11T10:14:34.331Z,17.46
2023-05-11T10:18:33.931Z,18.17
2023-05-11T10:22:29.602Z,18.68
2023-05-11T10:26:29.172Z,18.44
2023-05-11T10:30:24.297Z,18.23
2023-05-11T10:34:23.491Z,18.35
2023-05-11T10:38:19.284Z,18.43
2023-05-11T10:42:18.990Z,18.97
2023-05-11T10:46:14.464Z,17.11
2023-05-11T10:50:10.282Z,17.55
2023-05-11T10:54:10.265Z,17.82
2023-05-11T10:58:07.203Z,17.29
2023-05-11T11:02:09.047Z,16.94
2023-05-11T11:06:10.311Z,16.75
2023-05-11T11:10:09.975Z,17.32
2023-05-11T11:14:03.101Z,18.49
2023-05-11T11:18:06.322Z,17.59
2023-05-11T11:22:02.254Z,18.16
2023-05-11T11:26:01.562Z,18.27
2023-05-11T11:29:57.325Z,18.42
2023-05-11T11:33:57.014Z,17.83
2023-05-11T11:37:52.400Z,17.67
2023-05-11T11:41:48.115Z,17.58
2023-05-11T11:45:45.088Z,16.53
2023-05-11T11:49:44.893Z,15.64
2023-05-11T11:53:44.610Z,16.18
2023-05-11T11:57:40.284Z,17.08
2023-05-11T12:01:39.465Z,17.56
2023-05-11T12:05:35.270Z,17.22
2023-05-11T12:09:32.587Z,17.40
2023-05-11T12:13:25.534Z,17.98
2023-05-11T12:17:28.855Z,17.17
2023-05-11T12:21:27.880Z,16.69
2023-05-11T12:25:23.760Z,16.99
2023-05-11T12:29:23.748Z,17.13
2023-05-11T12:33:19.452Z,17.28
2023-05-11T12:37:18.485Z,17.71
2023-05-11T12:41:14.522Z,17.77
2023-05-11T12:45:14.289Z,17.27
2023-05-11T12:49:09.599Z,17.03
2023-05-11T12:53:09.070Z,16.91
2023-05-11T12:57:04.530Z,17.78
2023-05-11T13:01:04.085Z,17.54
2023-05-11T13:04:59.400Z,17.75
2023-05-11T13:08:58.702Z,17.02
2023-05-11T13:12:54.421Z,16.65
2023-05-11T13:16:53.694Z,15.57
2023-05-11T13:20:49.426Z,15.66
2023-05-11T13:24:48.661Z,15.51
2023-05-11T13:28:50.226Z,15.76
2023-05-11T13:32:54.832Z,15.59
2023-05-11T13:36:50.527Z,15.12
2023-05-11T13:40:50.125Z,14.96
2023-05-11T13:44:45.695Z,14.04
2023-05-11T13:48:45.295Z,14.67
2023-05-11T13:52:40.914Z,15.04
2023-05-11T13:56:40.220Z,15.20
2023-05-11T14:00:35.335Z,15.95
2023-05-11T14:04:34.490Z,16.47
2023-05-11T14:08:29.630Z,16.52
2023-05-11T14:12:29.292Z,16.85
2023-05-11T14:16:24.625Z,16.74
2023-05-11T14:20:23.832Z,16.73
2023-05-11T14:24:19.806Z,17.30
2023-05-11T14:28:19.067Z,17.83
2023-05-11T14:32:14.460Z,18.02
2023-05-11T14:36:13.992Z,18.17
2023-05-11T14:40:09.753Z,18.39
2023-05-11T14:44:09.135Z,18.38
2023-05-11T14:48:04.984Z,18.66
2023-05-11T14:52:00.778Z,18.62
2023-05-11T14:56:00.460Z,18.42
2023-05-11T14:59:59.947Z,19.07
2023-05-11T15:03:59.794Z,19.44
2023-05-11T15:08:05.172Z,19.51
2023-05-11T15:12:07.520Z,20.03
2023-05-11T15:16:05.596Z,20.22
2023-05-11T15:20:07.216Z,20.45
2023-05-11T15:24:05.445Z,20.19
2023-05-11T15:28:07.050Z,20.22
2023-05-11T15:32:05.707Z,20.43
2023-05-11T15:36:07.638Z,19.92
2023-05-11T15:40:05.575Z,20.06
2023-05-11T15:44:07.099Z,20.15
2023-05-11T15:48:05.662Z,20.36
2023-05-11T15:52:07.015Z,20.27
2023-05-11T15:56:05.578Z,19.91
2023-05-11T16:00:07.476Z,19.49
2023-05-11T16:04:06.402Z,19.83
2023-05-11T16:08:08.365Z,20.30
2023-05-11T16:12:06.597Z,19.94
2023-05-11T16:16:08.147Z,19.86
2023-05-11T16:20:06.835Z,20.34
2023-05-11T16:24:03.849Z,20.71
2023-05-11T16:28:03.515Z,21.09
2023-05-11T16:32:05.507Z,21.34
2023-05-11T16:36:10.214Z,21.45
2023-05-11T16:40:08.882Z,21.65
2023-05-11T16:44:10.231Z,22.03
2023-05-11T16:48:08.668Z,22.96
2023-05-11T16:52:05.848Z,24.21
2023-05-11T16:55:59.109Z,24.96
2023-05-11T17:00:00.159Z,25.61
2023-05-11T17:03:58.814Z,26.41
2023-05-11T17:08:00.831Z,27.65
2023-05-11T17:11:58.884Z,28.69
2023-05-11T17:15:58.664Z,29.58
2023-05-11T17:19:56.227Z,30.80
2023-05-11T17:23:54.835Z,31.29
2023-05-11T17:27:44.121Z,31.84
2023-05-11T17:31:35.467Z,32.79
2023-05-11T17:35:31.401Z,33.98
2023-05-11T17:39:31.322Z,34.87
2023-05-11T17:43:31.309Z,35.06
2023-05-11T17:47:29.042Z,35.02
2023-05-11T17:51:29.335Z,35.75
2023-05-11T17:55:29.332Z,36.60
2023-05-11T17:59:21.153Z,37.44
2023-05-11T18:03:06.519Z,38.43
2023-05-11T18:06:51.648Z,39.54
2023-05-11T18:10:36.795Z,40.87
2023-05-11T18:14:30.248Z,41.13
2023-05-11T18:18:30.361Z,41.17
2023-05-11T18:22:28.199Z,41.40
2023-05-11T18:26:28.508Z,42.42
2023-05-11T18:30:26.124Z,43.22
2023-05-11T18:34:27.244Z,43.55
2023-05-11T18:38:19.025Z,44.19
2023-05-11T18:42:03.920Z,44.41
2023-05-11T18:45:48.928Z,44.38
2023-05-11T18:49:40.315Z,44.79
2023-05-11T18:53:39.869Z,45.26
2023-05-11T18:57:41.536Z,45.50
2023-05-11T19:01:47.564Z,47.93
2023-05-11T19:05:50.362Z,49.61
2023-05-11T19:09:48.981Z,50.34
2023-05-11T19:13:43.314Z,51.05
2023-05-11T19:17:34.045Z,53.45
2023-05-11T19:21:24.725Z,55.82
2023-05-11T19:25:23.096Z,55.17
2023-05-11T19:29:20.837Z,55.62
2023-05-11T19:33:11.538Z,56.62
2023-05-11T19:36:58.001Z,57.53
2023-05-11T19:40:46.254Z,57.82
2023-05-11T19:44:31.523Z,58.16
2023-05-11T19:48:16.594Z,57.92
2023-05-11T19:52:01.646Z,59.30
2023-05-11T19:55:48.373Z,60.65
2023-05-11T19:59:33.398Z,60.88
2023-05-11T20:03:18.343Z,60.18
2023-05-11T20:07:03.604Z,61.70
2023-05-11T20:10:48.817Z,62.67
2023-05-11T20:14:34.008Z,63.44
2023-05-11T20:18:27.047Z,63.28
2023-05-11T20:22:28.538Z,63.10
2023-05-11T20:26:27.115Z,62.86
2023-05-11T20:30:28.572Z,63.07
2023-05-11T20:34:26.243Z,62.35
2023-05-11T20:38:28.634Z,63.17
2023-05-11T20:42:27.219Z,65.15
2023-05-11T20:46:28.478Z,67.22
2023-05-11T20:50:26.566Z,67.67
2023-05-11T20:54:18.537Z,68.05
2023-05-11T20:58:03.795Z,68.93
2023-05-11T21:01:48.796Z,68.61
2023-05-11T21:05:33.752Z,68.03
2023-05-11T21:09:18.922Z,67.96
2023-05-11T21:13:03.784Z,69.54
2023-05-11T21:16:49.189Z,71.95
2023-05-11T21:20:34.110Z,73.32
2023-05-11T21:24:19.202Z,73.10
2023-05-11T21:28:03.934Z,73.20
2023-05-11T21:32:04.698Z,73.21
2023-05-11T21:36:05.106Z,75.11
2023-05-11T21:40:07.838Z,75.17
2023-05-11T21:44:06.022Z,75.33
2023-05-11T21:48:07.713Z,74.71
2023-05-11T21:52:06.199Z,72.39
2023-05-11T21:56:07.777Z,71.85
2023-05-11T22:00:06.190Z,73.60
2023-05-11T22:04:07.778Z,73.96
2023-05-11T22:08:13.994Z,73.06
2023-05-11T22:12:16.746Z,73.46
2023-05-11T22:16:15.205Z,75.39
2023-05-11T22:20:16.919Z,76.68
2023-05-11T22:24:14.495Z,77.81
2023-05-11T22:28:14.754Z,78.35
2023-05-11T22:32:12.537Z,79.44
2023-05-11T22:36:12.925Z,80.20
2023-05-11T22:40:10.419Z,81.54
2023-05-11T22:44:09.605Z,80.41
2023-05-11T22:48:07.513Z,80.13
2023-05-11T22:52:07.851Z,80.68
2023-05-11T22:56:05.678Z,82.13
2023-05-11T23:00:05.852Z,82.09
2023-05-11T23:04:03.588Z,82.00
2023-05-11T23:08:14.115Z,81.59
2023-05-11T23:12:15.732Z,80.84
2023-05-11T23:16:14.421Z,80.15
2023-05-11T23:20:13.649Z,78.90
2023-05-11T23:24:05.577Z,78.12
2023-05-11T23:27:50.965Z,76.08
2023-05-11T23:31:36.181Z,75.52
2023-05-11T23:35:21.443Z,76.70
2023-05-11T23:39:06.268Z,77.53
2023-05-11T23:42:51.655Z,77.57
2023-05-11T23:46:42.733Z,79.38
2023-05-11T23:50:34.400Z,80.12
2023-05-11T23:54:25.607Z,79.50
2023-05-11T23:58:25.203Z,78.81
